Time;durP1;ratioP1;P1;durP2;ratioP2;P2;SDS_P1;SDS_P2;PMS_P1;PMS_P2;Temp;Humidity;BMP_temperature;BMP_pressure;BME280_temperature;BME280_humidity;BME280_pressure;Samples;Min_cycle;Max_cycle;Signal;HPM_P1;HPM_P2
2023/02/28 00:00:12;;;;;;;3.00;2.23;;;2.70;1.00;;;;;;5015197;28;20415;-86
2023/02/28 00:02:44;;;;;;;3.80;2.10;;;2.60;1.00;;;;;;5030761;28;20484;-83
2023/02/28 00:05:12;;;;;;;5.60;2.63;;;2.60;1.00;;;;;;5027134;28;20967;-91
2023/02/28 00:07:38;;;;;;;5.83;2.73;;;2.50;1.00;;;;;;5002825;28;20779;-90
2023/02/28 00:10:07;;;;;;;5.17;2.50;;;2.40;1.00;;;;;;4998039;28;20418;-90
2023/02/28 00:12:33;;;;;;;4.90;2.33;;;2.40;1.00;;;;;;5005635;28;20425;-90
2023/02/28 00:14:58;;;;;;;3.97;3.50;;;2.20;1.00;;;;;;5000492;28;20418;-90
2023/02/28 00:17:27;;;;;;;4.50;2.70;;;2.30;1.00;;;;;;5007051;28;20536;-81
2023/02/28 00:19:52;;;;;;;4.70;2.67;;;2.20;1.00;;;;;;5002705;28;20176;-79
2023/02/28 00:22:19;;;;;;;6.30;3.40;;;2.10;6.70;;;;;;5002049;28;20480;-85
2023/02/28 00:24:45;;;;;;;6.00;3.00;;;2.10;49.80;;;;;;4997317;28;20230;-91
2023/02/28 00:27:11;;;;;;;4.07;2.33;;;2.10;30.30;;;;;;4994373;28;20422;-82
2023/02/28 00:29:37;;;;;;;5.83;2.87;;;2.10;20.70;;;;;;4994937;28;20173;-79
2023/02/28 00:32:03;;;;;;;8.50;3.47;;;2.00;17.10;;;;;;4994761;28;20177;-79
2023/02/28 00:34:29;;;;;;;5.23;4.47;;;2.00;1.00;;;;;;4995024;28;20418;-92
2023/02/28 00:36:54;;;;;;;5.97;3.57;;;2.00;1.00;;;;;;4994923;28;20413;-91
2023/02/28 00:39:19;;;;;;;7.00;3.33;;;2.00;1.00;;;;;;4994801;28;20180;-90
2023/02/28 00:41:48;;;;;;;5.43;3.67;;;1.80;1.00;;;;;;4994741;28;20282;-91
2023/02/28 00:44:13;;;;;;;9.00;3.73;;;1.30;1.00;;;;;;4994605;28;20203;-89
2023/02/28 00:46:39;;;;;;;9.57;4.10;;;1.20;99.80;;;;;;4976237;28;20504;-89
2023/02/28 00:49:04;;;;;;;6.93;3.57;;;1.10;99.90;;;;;;4996667;28;20643;-85
2023/02/28 00:51:30;;;;;;;5.67;3.13;;;1.10;99.90;;;;;;5014188;28;20254;-88
2023/02/28 00:53:55;;;;;;;5.57;3.70;;;1.20;99.90;;;;;;5014260;28;20584;-90
2023/02/28 00:56:20;;;;;;;3.57;2.77;;;1.30;99.90;;;;;;5014187;28;20179;-89
2023/02/28 00:58:46;;;;;;;7.13;3.80;;;1.10;99.90;;;;;;5013710;28;20175;-92
2023/02/28 01:01:12;;;;;;;4.47;3.33;;;1.00;99.90;;;;;;5014363;28;20848;-87
2023/02/28 01:03:38;;;;;;;3.53;2.70;;;1.00;99.90;;;;;;5014367;28;20668;-85
2023/02/28 01:06:04;;;;;;;5.73;3.50;;;1.10;99.90;;;;;;5014636;28;20179;-89
2023/02/28 01:08:29;;;;;;;8.33;4.00;;;1.10;99.90;;;;;;5014841;28;20847;-87
2023/02/28 01:10:55;;;;;;;4.80;3.40;;;0.70;99.90;;;;;;5014619;28;20470;-90
2023/02/28 01:13:22;;;;;;;3.17;2.87;;;0.50;99.90;;;;;;5014442;28;20184;-88
2023/02/28 01:15:54;;;;;;;6.80;3.90;;;0.60;99.90;;;;;;5014385;28;20646;-86
2023/02/28 01:18:21;;;;;;;5.90;3.60;;;0.80;99.90;;;;;;5013130;28;20893;-84
2023/02/28 01:20:47;;;;;;;6.00;3.50;;;0.60;99.90;;;;;;5013413;28;20429;-89
2023/02/28 01:23:12;;;;;;;8.73;4.60;;;0.60;99.90;;;;;;5013224;28;20802;-87
2023/02/28 01:25:38;;;;;;;5.27;4.10;;;0.70;99.90;;;;;;5014218;28;20480;-87
2023/02/28 01:28:04;;;;;;;6.57;3.67;;;0.80;99.90;;;;;;5014367;28;20166;-89
2023/02/28 01:30:30;;;;;;;5.23;3.50;;;0.60;99.90;;;;;;5014558;28;20183;-92
2023/02/28 01:32:56;;;;;;;6.50;3.60;;;;;;;;;;5015364;28;20410;-86
2023/02/28 01:35:21;;;;;;;5.87;3.63;;;0.00;99.90;;;;;;5014997;28;20181;-91
2023/02/28 01:37:47;;;;;;;8.40;4.50;;;;;;;;;;5014220;28;20410;-93
2023/02/28 01:40:13;;;;;;;7.63;4.07;;;0.10;99.90;;;;;;5013900;28;20666;-90
2023/02/28 01:42:39;;;;;;;7.47;4.20;;;0.20;99.90;;;;;;5014090;28;20454;-92
2023/02/28 01:45:29;;;;;;;9.13;3.10;;;0.10;99.90;;;;;;5018302;28;20471;-95
2023/02/28 01:47:59;;;;;;;8.97;4.50;;;0.10;99.90;;;;;;5033303;28;20254;-93
2023/02/28 01:50:29;;;;;;;5.27;4.03;;;0.30;99.90;;;;;;5005715;23;20582;-81
2023/02/28 01:52:59;;;;;;;6.60;4.70;;;0.20;99.90;;;;;;5028109;28;20425;-80
2023/02/28 01:55:28;;;;;;;5.77;3.37;;;0.10;99.90;;;;;;5029662;28;20417;-79
2023/02/28 01:57:57;;;;;;;9.70;5.07;;;0.00;99.90;;;;;;5029602;28;20521;-79
2023/02/28 02:00:26;;;;;;;4.60;3.20;;;0.10;99.90;;;;;;5029852;28;20785;-79
2023/02/28 02:02:57;;;;;;;6.40;4.50;;;-0.10;99.90;;;;;;5024804;28;20494;-79
2023/02/28 02:05:30;;;;;;;3.80;3.23;;;-0.30;99.90;;;;;;5030494;28;20512;-79
2023/02/28 02:08:09;;;;;;;8.53;4.80;;;-0.10;99.90;;;;;;5029359;28;20413;-79
2023/02/28 02:10:56;;;;;;;8.43;3.93;;;-0.20;99.90;;;;;;5028134;28;20432;-78
2023/02/28 02:13:34;;;;;;;4.70;3.90;;;-0.60;99.90;;;;;;5027895;28;20465;-79
2023/02/28 02:16:20;;;;;;;4.47;3.00;;;0.10;99.90;;;;;;5026538;28;20396;-79
2023/02/28 02:18:51;;;;;;;5.13;3.63;;;;;;;;;;5034838;23;20494;-79
2023/02/28 02:21:26;;;;;;;4.33;3.40;;;;;;;;;;5026582;28;20465;-84
2023/02/28 02:23:52;;;;;;;5.53;3.30;;;;;;;;;;5013711;28;20506;-92
2023/02/28 02:26:37;;;;;;;7.03;3.07;;;;;;;;;;5012462;28;20434;-80
2023/02/28 02:29:23;;;;;;;7.60;3.60;;;;;;;;;;5013803;28;20762;-81
2023/02/28 02:31:55;;;;;;;4.93;3.80;;;;;;;;;;5012544;28;20456;-82
2023/02/28 02:34:27;;;;;;;9.43;4.40;;;;;;;;;;5016354;28;20423;-92
2023/02/28 02:37:11;;;;;;;6.70;3.73;;;;;;;;;;5017860;28;20958;-83
2023/02/28 02:39:57;;;;;;;6.37;2.63;;;;;;;;;;5016654;28;20778;-93
2023/02/28 02:42:42;;;;;;;6.40;3.13;;;;;;;;;;5010200;28;20508;-80
2023/02/28 02:45:15;;;;;;;5.13;2.67;;;;;;;;;;5017660;28;20496;-92
2023/02/28 02:47:42;;;;;;;5.23;3.77;;;;;;;;;;5017376;28;20411;-94
2023/02/28 02:50:12;;;;;;;6.23;4.33;;;;;;;;;;5019349;28;20428;-94
2023/02/28 02:52:40;;;;;;;7.70;3.50;;;;;;;;;;5021367;28;20456;-79
2023/02/28 02:55:11;;;;;;;5.63;2.80;;;;;;;;;;4978778;28;20517;-79
2023/02/28 02:57:41;;;;;;;6.73;3.17;;;;;;;;;;5018307;28;20566;-94
2023/02/28 03:00:08;;;;;;;8.23;3.00;;;;;;;;;;5019654;28;20808;-95
2023/02/28 03:02:35;;;;;;;4.73;3.83;;;;;;;;;;5019428;28;20945;-95
2023/02/28 03:05:03;;;;;;;6.43;3.53;;;;;;;;;;5021744;28;20466;-94
2023/02/28 03:07:29;;;;;;;6.77;3.87;;;;;;;;;;5021373;28;20421;-91
2023/02/28 03:09:56;;;;;;;7.97;3.50;;;;;;;;;;5021711;28;20421;-93
2023/02/28 03:12:24;;;;;;;6.53;3.83;;;;;;;;;;5021634;28;20925;-95
2023/02/28 03:15:01;;;;;;;6.30;2.83;;;;;;;;;;5024999;28;20461;-79
2023/02/28 03:17:53;;;;;;;5.50;2.80;;;-0.60;99.90;;;;;;5020660;28;20484;-79
2023/02/28 03:20:28;;;;;;;6.83;3.50;;;-0.40;99.90;;;;;;5022366;28;20414;-80
2023/02/28 03:23:21;;;;;;;5.50;4.07;;;-0.30;99.90;;;;;;5027274;28;20397;-79
2023/02/28 03:26:01;;;;;;;10.23;3.60;;;-0.60;99.90;;;;;;5030067;28;20472;-87
2023/02/28 03:28:40;;;;;;;4.50;3.27;;;-0.80;99.90;;;;;;5027172;28;20764;-86
2023/02/28 03:31:27;;;;;;;5.40;2.87;;;-0.90;99.90;;;;;;5027509;28;20432;-94
2023/02/28 03:34:00;;;;;;;5.97;2.83;;;-0.90;99.90;;;;;;5021285;28;20421;-93
2023/02/28 03:36:29;;;;;;;5.03;3.93;;;-1.30;99.90;;;;;;5016679;28;20410;-91
2023/02/28 03:39:06;;;;;;;4.50;2.50;;;-1.00;99.90;;;;;;5016282;28;20409;-79
2023/02/28 03:41:50;;;;;;;6.30;3.40;;;-1.00;99.90;;;;;;5015997;28;20408;-78
2023/02/28 03:44:19;;;;;;;4.80;2.47;;;;;;;;;;5014941;28;20477;-90
2023/02/28 03:46:49;;;;;;;5.50;3.37;;;;;;;;;;5024476;28;20410;-89
2023/02/28 03:49:17;;;;;;;3.33;2.57;;;;;;;;;;5022948;28;20755;-80
2023/02/28 03:51:45;;;;;;;5.60;3.90;;;;;;;;;;5031261;28;20525;-89
2023/02/28 03:54:14;;;;;;;4.70;2.13;;;;;;;;;;5033121;28;20398;-84
2023/02/28 03:56:44;;;;;;;7.87;3.60;;;;;;;;;;4996242;28;20445;-79
2023/02/28 03:59:31;;;;;;;9.00;3.47;;;;;;;;;;5024800;28;20398;-79
2023/02/28 04:01:58;;;;;;;5.10;3.90;;;;;;;;;;5028548;28;20429;-79
2023/02/28 04:04:24;;;;;;;7.77;4.00;;;;;;;;;;5028104;28;20475;-79
2023/02/28 04:06:53;;;;;;;7.00;3.10;;;;;;;;;;5024735;28;20729;-89
2023/02/28 04:09:19;;;;;;;3.23;1.80;;;;;;;;;;5019398;28;20417;-79
2023/02/28 04:11:49;;;;;;;5.27;2.23;;;;;;;;;;5014485;28;20946;-79
2023/02/28 04:14:15;;;;;;;4.67;2.90;;;;;;;;;;5015909;28;20410;-90
2023/02/28 04:16:41;;;;;;;3.83;2.57;;;;;;;;;;5016140;28;20394;-79
2023/02/28 04:19:08;;;;;;;3.70;2.67;;;;;;;;;;5022555;28;20460;-89
2023/02/28 04:21:39;;;;;;;3.73;2.77;;;;;;;;;;5030910;28;20417;-80
2023/02/28 04:24:14;;;;;;;4.90;3.20;;;;;;;;;;5026720;28;20472;-81
2023/02/28 04:26:40;;;;;;;5.43;3.50;;;;;;;;;;5029393;28;20398;-94
2023/02/28 04:29:07;;;;;;;3.90;2.23;;;;;;;;;;5025022;28;20421;-83
2023/02/28 04:31:33;;;;;;;4.00;3.20;;;;;;;;;;5027772;28;20428;-81
2023/02/28 04:33:59;;;;;;;3.00;2.80;;;;;;;;;;5026134;28;20443;-79
2023/02/28 04:36:25;;;;;;;5.17;3.40;;;;;;;;;;5016316;28;20413;-82
2023/02/28 04:38:51;;;;;;;5.13;3.53;;;;;;;;;;5014246;28;20488;-81
2023/02/28 04:41:17;;;;;;;5.20;2.20;;;;;;;;;;5013522;28;20452;-94
2023/02/28 04:43:43;;;;;;;6.40;2.37;;;;;;;;;;5014131;28;20417;-85
2023/02/28 04:46:09;;;;;;;4.17;3.50;;;;;;;;;;5014283;28;20842;-80
2023/02/28 04:48:37;;;;;;;6.93;3.03;;;;;;;;;;5017895;28;20488;-79
2023/02/28 04:51:03;;;;;;;11.03;3.90;;;;;;;;;;5018958;28;20439;-94
2023/02/28 04:53:30;;;;;;;5.40;2.80;;;;;;;;;;5021142;28;20496;-93
2023/02/28 04:55:56;;;;;;;3.93;2.33;;;;;;;;;;5018280;28;20417;-92
2023/02/28 04:58:23;;;;;;;4.90;2.60;;;;;;;;;;5010337;28;20410;-81
2023/02/28 05:00:49;;;;;;;7.60;4.23;;;;;;;;;;4982778;28;20513;-90
2023/02/28 05:03:15;;;;;;;7.97;4.00;;;;;;;;;;5014983;28;20472;-92
2023/02/28 05:05:41;;;;;;;5.37;3.10;;;;;;;;;;5015033;28;20468;-91
2023/02/28 05:08:07;;;;;;;3.67;3.37;;;;;;;;;;5015577;28;20818;-90
2023/02/28 05:10:33;;;;;;;6.10;2.47;;;;;;;;;;5015198;28;20428;-84
2023/02/28 05:12:58;;;;;;;2.93;2.70;;;;;;;;;;5013089;28;20417;-87
2023/02/28 05:15:24;;;;;;;4.00;2.57;;;;;;;;;;5014454;28;20413;-79
2023/02/28 05:17:53;;;;;;;4.73;2.30;;;;;;;;;;5013331;28;20492;-92
2023/02/28 05:20:20;;;;;;;9.17;3.70;;;;;;;;;;5014856;28;20404;-91
2023/02/28 05:22:56;;;;;;;6.17;2.70;;;;;;;;;;5015003;28;20771;-91
2023/02/28 05:25:22;;;;;;;5.77;2.40;;;;;;;;;;5014629;28;20867;-79
2023/02/28 05:27:48;;;;;;;6.93;3.83;;;;;;;;;;5012839;28;20420;-92
2023/02/28 05:30:15;;;;;;;5.50;2.37;;;;;;;;;;5015442;28;20431;-82
2023/02/28 05:32:44;;;;;;;4.37;3.27;;;;;;;;;;5021847;28;20439;-83
2023/02/28 05:35:11;;;;;;;6.23;3.40;;;;;;;;;;5018843;28;20504;-95
2023/02/28 05:37:37;;;;;;;4.67;2.10;;;;;;;;;;5016974;28;20422;-93
2023/02/28 05:40:06;;;;;;;5.80;2.67;;;;;;;;;;5021771;28;20431;-89
2023/02/28 05:42:32;;;;;;;5.67;3.10;;;;;;;;;;5019510;28;20410;-89
2023/02/28 05:44:58;;;;;;;6.50;3.00;;;;;;;;;;5019660;28;20537;-92
2023/02/28 05:47:24;;;;;;;10.60;3.47;;;;;;;;;;5025772;28;20416;-81
2023/02/28 05:49:50;;;;;;;5.13;2.97;;;;;;;;;;5029530;28;20468;-80
2023/02/28 05:52:16;;;;;;;4.80;3.50;;;;;;;;;;5018285;28;20488;-84
2023/02/28 05:54:42;;;;;;;7.10;3.80;;;;;;;;;;5022591;28;20433;-83
2023/02/28 05:57:08;;;;;;;3.97;3.67;;;;;;;;;;5016749;28;20420;-93
2023/02/28 05:59:34;;;;;;;4.47;2.93;;;;;;;;;;5013610;28;20819;-88
2023/02/28 06:02:00;;;;;;;5.50;4.00;;;;;;;;;;4972179;28;20502;-88
2023/02/28 06:04:26;;;;;;;4.27;3.27;;;;;;;;;;5014170;28;20479;-80
2023/02/28 06:06:52;;;;;;;6.23;4.00;;;;;;;;;;5011548;28;20506;-85
2023/02/28 06:09:21;;;;;;;6.57;3.90;;;;;;;;;;5006385;28;20970;-81
2023/02/28 06:11:47;;;;;;;4.17;3.77;;;;;;;;;;5002414;28;20993;-84
2023/02/28 06:14:15;;;;;;;3.50;2.60;;;;;;;;;;4998675;28;20505;-90
2023/02/28 06:16:44;;;;;;;4.50;3.57;;;;;;;;;;4997509;28;20933;-91
2023/02/28 06:19:11;;;;;;;8.67;3.90;;;;;;;;;;4997316;28;20477;-90
2023/02/28 06:21:37;;;;;;;8.47;5.00;;;;;;;;;;4999284;28;20439;-88
2023/02/28 06:24:03;;;;;;;5.60;4.20;;;;;;;;;;4998579;28;20457;-88
2023/02/28 06:26:30;;;;;;;4.07;2.60;;;;;;;;;;4995937;28;20433;-85
2023/02/28 06:28:56;;;;;;;6.87;3.50;;;;;;;;;;4998046;28;20421;-89
2023/02/28 06:31:22;;;;;;;8.63;4.47;;;;;;;;;;4998665;28;20418;-90
2023/02/28 06:33:49;;;;;;;6.10;4.40;;;;;;;;;;4998652;28;20413;-90
2023/02/28 06:36:16;;;;;;;8.27;4.00;;;;;;;;;;5000999;28;20417;-92
2023/02/28 06:38:42;;;;;;;6.87;3.63;;;;;;;;;;5002111;28;20418;-90
2023/02/28 06:41:11;;;;;;;5.27;3.50;;;;;;;;;;4998341;28;20413;-79
2023/02/28 06:43:39;;;;;;;11.80;4.17;;;;;;;;;;4998858;28;20584;-92
2023/02/28 06:46:06;;;;;;;10.03;4.27;;;;;;;;;;5002014;28;20405;-91
2023/02/28 06:48:33;;;;;;;16.47;9.10;;;;;;;;;;5013302;28;20430;-86
2023/02/28 06:51:06;;;;;;;15.67;11.93;;;;;;;;;;5010693;28;20882;-79
2023/02/28 06:53:32;;;;;;;16.07;10.40;;;;;;;;;;5007379;28;20442;-88
2023/02/28 06:55:57;;;;;;;12.23;7.50;;;0.20;99.90;;;;;;5008310;28;20426;-79
2023/02/28 06:58:23;;;;;;;16.50;9.30;;;0.20;99.90;;;;;;5010353;28;20441;-84
2023/02/28 07:00:52;;;;;;;16.50;12.03;;;0.70;99.90;;;;;;5015442;28;20164;-79
2023/02/28 07:03:18;;;;;;;18.80;11.00;;;1.90;99.90;;;;;;5006091;28;20235;-78
2023/02/28 07:05:44;;;;;;;12.13;9.97;;;3.00;1.00;;;;;;5018344;28;20450;-79
2023/02/28 07:08:10;;;;;;;23.97;16.00;;;4.10;1.00;;;;;;5056782;22;20485;-79
2023/02/28 07:10:37;;;;;;;18.37;12.67;;;5.00;1.00;;;;;;5033640;28;20414;-79
2023/02/28 07:13:04;;;;;;;11.40;6.87;;;5.20;1.00;;;;;;5037218;28;20176;-79
2023/02/28 07:15:29;;;;;;;9.07;4.33;;;5.10;1.00;;;;;;5040934;23;20498;-79
2023/02/28 07:17:57;;;;;;;9.90;7.57;;;5.40;1.00;;;;;;5029027;28;20425;-80
2023/02/28 07:20:26;;;;;;;7.10;5.27;;;5.90;99.90;;;;;;5038152;23;20330;-79
2023/02/28 07:22:56;;;;;;;9.37;5.90;;;6.50;99.90;;;;;;5036222;28;20410;-89
2023/02/28 07:25:22;;;;;;;4.73;3.30;;;5.90;99.90;;;;;;5033135;28;20459;-81
2023/02/28 07:27:48;;;;;;;9.83;5.77;;;5.80;99.90;;;;;;5030989;28;20420;-94
2023/02/28 07:30:17;;;;;;;8.80;6.50;;;6.10;99.90;;;;;;5031020;28;20411;-96
2023/02/28 07:32:42;;;;;;;12.07;7.20;;;6.30;99.90;;;;;;5022053;28;20180;-95
2023/02/28 07:35:08;;;;;;;24.70;17.40;;;6.90;99.90;;;;;;5018920;28;20425;-95
2023/02/28 07:37:36;;;;;;;9.70;7.53;;;7.30;99.90;;;;;;5041284;28;20174;-89
2023/02/28 07:40:08;;;;;;;8.80;4.10;;;7.60;99.90;;;;;;5029919;28;20532;-90
2023/02/28 07:42:34;;;;;;;6.40;2.70;;;7.50;99.90;;;;;;5046749;23;20874;-82
2023/02/28 07:45:00;;;;;;;4.53;2.30;;;7.40;99.90;;;;;;5058565;23;1015619;-88
2023/02/28 07:47:26;;;;;;;6.20;3.37;;;7.60;99.90;;;;;;5035112;28;20466;-82
2023/02/28 07:49:51;;;;;;;5.03;2.37;;;7.80;99.90;;;;;;5025218;28;20172;-95
2023/02/28 07:52:17;;;;;;;3.43;2.77;;;7.60;99.90;;;;;;5018935;28;20248;-95
2023/02/28 07:54:42;;;;;;;4.70;2.57;;;8.10;99.90;;;;;;5018157;28;20190;-93
2023/02/28 07:57:08;;;;;;;4.57;2.57;;;8.60;99.90;;;;;;5017623;28;20587;-93
2023/02/28 07:59:33;;;;;;;4.20;2.60;;;8.70;99.90;;;;;;5032795;28;20178;-94
2023/02/28 08:01:59;;;;;;;6.27;3.00;;;9.60;99.90;;;;;;5017374;28;20187;-93
2023/02/28 08:04:24;;;;;;;3.80;2.90;;;9.60;99.90;;;;;;5018199;28;20215;-94
2023/02/28 08:06:53;;;;;;;6.73;3.07;;;9.40;99.90;;;;;;4985079;28;20212;-80
2023/02/28 08:09:25;;;;;;;5.87;2.73;;;9.90;99.90;;;;;;5030249;28;20222;-81
2023/02/28 08:11:51;;;;;;;4.10;3.00;;;9.80;99.90;;;;;;5031582;28;20408;-81
2023/02/28 08:14:16;;;;;;;3.33;3.00;;;10.10;99.90;;;;;;5027993;28;20416;-94
2023/02/28 08:16:42;;;;;;;3.20;2.27;;;10.30;99.90;;;;;;5028809;28;20186;-96
2023/02/28 08:19:08;;;;;;;5.87;2.80;;;10.40;99.90;;;;;;5030074;28;20181;-95
2023/02/28 08:21:34;;;;;;;3.87;2.90;;;10.90;99.90;;;;;;5028027;28;20441;-87
2023/02/28 08:24:00;;;;;;;5.73;2.80;;;10.70;99.90;;;;;;5030356;28;20465;-83
2023/02/28 08:26:25;;;;;;;3.93;2.47;;;11.20;99.90;;;;;;5036599;28;20177;-91
2023/02/28 08:28:51;;;;;;;4.50;2.30;;;11.10;99.90;;;;;;5034212;28;20155;-85
2023/02/28 08:31:17;;;;;;;4.73;3.67;;;11.00;99.90;;;;;;5035178;28;20182;-83
2023/02/28 08:33:44;;;;;;;3.00;2.33;;;11.10;99.90;;;;;;5037641;23;20490;-90
2023/02/28 08:36:11;;;;;;;4.90;3.23;;;11.20;99.90;;;;;;5029178;28;20181;-92
2023/02/28 08:38:39;;;;;;;4.00;3.03;;;11.40;99.90;;;;;;5029517;28;20468;-83
2023/02/28 08:41:08;;;;;;;2.50;1.83;;;11.60;99.90;;;;;;5032726;28;20513;-82
2023/02/28 08:43:35;;;;;;;3.40;1.93;;;11.80;99.90;;;;;;5028630;28;20497;-81
2023/02/28 08:46:00;;;;;;;4.60;2.00;;;11.60;99.90;;;;;;5031232;28;20479;-94
2023/02/28 08:48:28;;;;;;;4.43;2.97;;;12.10;99.90;;;;;;5021057;28;20498;-96
2023/02/28 08:50:59;;;;;;;2.40;1.80;;;12.30;99.90;;;;;;5019268;28;20182;-93
2023/02/28 08:53:25;;;;;;;4.77;2.27;;;12.20;99.90;;;;;;5026740;28;20444;-95
2023/02/28 08:56:05;;;;;;;4.00;2.37;;;12.30;99.90;;;;;;5023422;28;20420;-82
2023/02/28 08:58:31;;;;;;;3.20;2.00;;;12.80;99.90;;;;;;5018830;28;20172;-93
2023/02/28 09:00:57;;;;;;;3.30;2.03;;;12.90;99.90;;;;;;5015527;28;20900;-93
2023/02/28 09:03:23;;;;;;;4.23;1.80;;;12.90;99.90;;;;;;5015224;28;20205;-93
2023/02/28 09:05:56;;;;;;;3.77;3.13;;;12.90;99.90;;;;;;5015293;28;20265;-85
2023/02/28 09:08:22;;;;;;;2.93;1.80;;;13.20;99.90;;;;;;5015688;28;20404;-93
2023/02/28 09:10:48;;;;;;;3.40;1.80;;;13.10;99.90;;;;;;5015220;28;20422;-89
2023/02/28 09:13:13;;;;;;;3.60;2.10;;;13.20;99.90;;;;;;5015421;28;20414;-89
2023/02/28 09:15:39;;;;;;;4.50;2.20;;;12.90;99.90;;;;;;5015210;28;20202;-82
2023/02/28 09:18:07;;;;;;;3.60;2.57;;;13.10;99.90;;;;;;5128982;23;20262;-80
2023/02/28 09:20:32;;;;;;;5.90;2.07;;;13.00;99.90;;;;;;5030635;28;20191;-80
2023/02/28 09:22:58;;;;;;;2.70;1.97;;;13.00;99.90;;;;;;5029335;28;20430;-80
2023/02/28 09:25:23;;;;;;;5.70;2.03;;;14.00;99.90;;;;;;5032542;28;20214;-83
2023/02/28 09:27:51;;;;;;;3.50;2.20;;;14.00;99.90;;;;;;5038355;23;20263;-79
2023/02/28 09:30:17;;;;;;;7.50;1.93;;;14.50;99.90;;;;;;5031257;28;20163;-81
2023/02/28 09:32:51;;;;;;;3.37;2.10;;;14.30;99.90;;;;;;5041275;23;20591;-78
2023/02/28 09:35:18;;;;;;;4.10;2.13;;;14.40;99.90;;;;;;5033113;28;20154;-80
2023/02/28 09:37:44;;;;;;;3.70;2.00;;;14.00;99.90;;;;;;5018900;28;20480;-93
2023/02/28 09:40:11;;;;;;;5.50;2.23;;;14.20;99.90;;;;;;5014879;28;20421;-91
2023/02/28 09:42:36;;;;;;;5.17;2.23;;;13.90;99.90;;;;;;5016131;28;20429;-94
2023/02/28 09:45:38;;;;;;;2.73;1.40;;;13.80;99.00;;;;;;5024502;28;20445;-92
2023/02/28 09:48:15;;;;;;;3.00;1.47;;;14.00;99.90;;;;;;5000095;28;20186;-81
2023/02/28 09:51:26;;;;;;;2.30;0.90;;;14.40;99.90;;;;;;5017656;28;20422;-92
2023/02/28 09:53:53;;;;;;;2.00;1.30;;;14.70;99.90;;;;;;5013785;28;20485;-94
2023/02/28 09:56:26;;;;;;;2.10;1.20;;;15.20;99.90;;;;;;5019616;28;20465;-79
2023/02/28 09:59:02;;;;;;;2.00;0.90;;;15.10;99.60;;;;;;5023113;28;20446;-96
2023/02/28 10:01:52;;;;;;;3.70;1.20;;;15.50;99.90;;;;;;5022133;28;20461;-89
2023/02/28 10:04:39;;;;;;;2.93;1.53;;;15.20;97.90;;;;;;4976182;28;20465;-89
2023/02/28 10:07:18;;;;;;;4.07;0.97;;;15.00;98.90;;;;;;5016150;28;20510;-82
2023/02/28 10:09:48;;;;;;;1.90;0.70;;;15.50;99.90;;;;;;5015621;28;20419;-87
2023/02/28 10:12:15;;;;;;;1.20;0.30;;;15.70;99.50;;;;;;5016828;28;20422;-92
2023/02/28 10:14:46;;;;;;;1.27;0.40;;;16.20;99.00;;;;;;5013748;28;20464;-89
2023/02/28 10:17:23;;;;;;;1.10;0.23;;;16.30;98.20;;;;;;5013633;28;20500;-88
2023/02/28 10:19:49;;;;;;;2.30;1.10;;;16.90;99.00;;;;;;5013554;28;20937;-82
2023/02/28 10:22:36;;;;;;;1.43;0.60;;;17.00;99.50;;;;;;5013405;28;20475;-91
2023/02/28 10:25:16;;;;;;;1.20;0.23;;;16.80;97.70;;;;;;5013101;28;20210;-90
2023/02/28 10:27:42;;;;;;;0.50;0.20;;;17.20;97.50;;;;;;5028781;28;20426;-86
2023/02/28 10:30:10;;;;;;;1.13;0.33;;;16.60;92.60;;;;;;5028549;28;20775;-89
2023/02/28 10:32:38;;;;;;;1.57;0.77;;;17.00;96.70;;;;;;5012899;28;20254;-80
2023/02/28 10:35:20;;;;;;;0.93;0.23;;;17.10;95.70;;;;;;5013330;28;20422;-90
2023/02/28 10:38:14;;;;;;;0.90;0.30;;;17.30;97.20;;;;;;5013805;28;20406;-88
2023/02/28 10:40:40;;;;;;;1.23;0.40;;;18.20;99.90;;;;;;5012971;28;20424;-82
2023/02/28 10:43:17;;;;;;;0.90;0.20;;;18.10;98.50;;;;;;5013644;28;20429;-92
2023/02/28 10:46:14;;;;;;;1.20;0.40;;;17.60;94.30;;;;;;5013501;28;20214;-82
2023/02/28 10:48:42;;;;;;;0.87;0.20;;;17.60;94.00;;;;;;5013859;28;20487;-89
2023/02/28 10:51:13;;;;;;;1.53;0.30;;;17.60;95.30;;;;;;5013627;28;20449;-90
2023/02/28 10:53:47;;;;;;;1.43;0.50;;;17.70;95.00;;;;;;5005365;28;20410;-85
2023/02/28 10:56:21;;;;;;;1.63;0.27;;;17.70;94.60;;;;;;5002393;28;20450;-83
2023/02/28 10:59:22;;;;;;;2.10;0.20;;;17.10;91.80;;;;;;5016220;28;20414;-90
2023/02/28 11:01:53;;;;;;;1.60;0.23;;;17.00;90.60;;;;;;5016458;28;20468;-88
2023/02/28 11:04:29;;;;;;;1.87;0.30;;;16.80;85.50;;;;;;4980632;28;20522;-85
2023/02/28 11:07:20;;;;;;;1.17;0.60;;;17.20;98.30;;;;;;5050661;28;20425;-83
2023/02/28 11:09:49;;;;;;;1.33;0.60;;;17.70;92.30;;;;;;5037393;28;20444;-87
2023/02/28 11:12:25;;;;;;;1.03;0.40;;;17.60;92.20;;;;;;5037589;28;20417;-89
2023/02/28 11:14:54;;;;;;;2.47;0.53;;;18.00;93.40;;;;;;5035524;28;20413;-90
2023/02/28 11:17:29;;;;;;;0.93;0.20;;;18.00;93.40;;;;;;5036004;28;20428;-90
2023/02/28 11:20:03;;;;;;;1.40;0.53;;;17.40;90.50;;;;;;5036360;28;20413;-89
2023/02/28 11:22:32;;;;;;;0.70;0.53;;;16.80;99.90;;;;;;5036440;28;20420;-90
2023/02/28 11:25:01;;;;;;;3.23;0.50;;;17.60;90.10;;;;;;5037171;28;20464;-91
2023/02/28 11:27:30;;;;;;;1.20;0.40;;;18.00;92.00;;;;;;5037903;28;20412;-87
2023/02/28 11:30:22;;;;;;;2.47;0.40;;;17.10;84.30;;;;;;5031416;28;20460;-94
2023/02/28 11:32:51;;;;;;;1.20;0.50;;;17.10;81.60;;;;;;4997649;28;20463;-93
2023/02/28 11:35:28;;;;;;;0.80;0.30;;;17.40;89.20;;;;;;4997483;28;20407;-94
2023/02/28 11:37:54;;;;;;;1.67;0.80;;;17.90;92.10;;;;;;5013843;28;20851;-93
2023/02/28 11:40:29;;;;;;;1.07;0.20;;;18.40;92.20;;;;;;5015863;28;20446;-92
2023/02/28 11:43:05;;;;;;;1.30;0.20;;;18.90;95.80;;;;;;5016704;28;20270;-94
2023/02/28 11:45:50;;;;;;;0.70;0.40;;;19.20;99.90;;;;;;5016617;28;20464;-94
2023/02/28 11:48:32;;;;;;;1.07;0.30;;;18.40;1.00;;;;;;5016775;28;20819;-94
2023/02/28 11:50:58;;;;;;;2.60;0.30;;;;;;;;;;5016945;28;20402;-91
2023/02/28 11:53:54;;;;;;;1.03;0.27;;;17.90;1.00;;;;;;5015012;28;20436;-88
2023/02/28 11:56:46;;;;;;;2.10;0.53;;;17.90;99.90;;;;;;5016545;28;20273;-83
2023/02/28 11:59:39;;;;;;;1.50;0.37;;;18.10;99.90;;;;;;5016003;28;20410;-91
2023/02/28 12:02:26;;;;;;;3.37;1.07;;;18.50;99.90;;;;;;5016068;28;20413;-91
2023/02/28 12:04:51;;;;;;;1.33;0.40;;;;;;;;;;5016506;28;21103;-93
2023/02/28 12:07:39;;;;;;;1.83;0.30;;;17.40;63.80;;;;;;5015460;28;20441;-92
2023/02/28 12:10:25;;;;;;;0.97;0.40;;;18.90;91.10;;;;;;5015762;28;20233;-89
2023/02/28 12:13:16;;;;;;;1.57;0.40;;;18.90;91.70;;;;;;5016564;28;20410;-83
2023/02/28 12:16:20;;;;;;;1.00;0.43;;;18.80;90.40;;;;;;5015710;28;20429;-92
2023/02/28 12:19:23;;;;;;;2.40;0.87;;;18.30;99.90;;;;;;5015988;28;20406;-90
2023/02/28 12:22:26;;;;;;;1.10;0.60;;;17.90;82.50;;;;;;5014711;28;20808;-93
2023/02/28 12:25:07;;;;;;;1.03;0.50;;;16.50;58.80;;;;;;5015346;28;20981;-89
2023/02/28 12:27:40;;;;;;;1.43;0.77;;;17.40;74.40;;;;;;5015770;28;20502;-92
2023/02/28 12:30:25;;;;;;;1.47;0.67;;;17.70;99.90;;;;;;5015793;28;20394;-93
2023/02/28 12:33:11;;;;;;;1.70;0.50;;;18.10;79.40;;;;;;5015583;28;20464;-93
2023/02/28 12:35:45;;;;;;;1.00;0.40;;;;;;;;;;5015867;28;20416;-92
2023/02/28 12:38:11;;;;;;;1.80;1.03;;;16.90;54.20;;;;;;5015727;28;20413;-91
2023/02/28 12:40:48;;;;;;;1.80;0.50;;;17.20;69.30;;;;;;5015118;28;20418;-91
2023/02/28 12:43:17;;;;;;;1.10;0.30;;;17.70;71.50;;;;;;5015500;28;20201;-91
2023/02/28 12:45:51;;;;;;;2.37;0.90;;;;;;;;;;5015367;28;20473;-91
2023/02/28 12:48:33;;;;;;;1.90;0.90;;;17.30;56.80;;;;;;5015882;28;20458;-93
2023/02/28 12:51:00;;;;;;;1.90;0.57;;;17.60;73.00;;;;;;5014297;28;20410;-91
2023/02/28 12:53:48;;;;;;;2.40;0.43;;;17.90;76.10;;;;;;5015108;28;20434;-90
2023/02/28 12:56:32;;;;;;;1.03;0.63;;;18.20;78.00;;;;;;5014772;28;20812;-92
2023/02/28 12:59:03;;;;;;;1.23;0.40;;;17.20;69.40;;;;;;5015412;28;20928;-92
2023/02/28 13:01:39;;;;;;;1.17;0.60;;;;;;;;;;5015143;28;20404;-90
2023/02/28 13:04:23;;;;;;;1.40;0.70;;;16.90;50.80;;;;;;5015145;28;20472;-92
2023/02/28 13:07:19;;;;;;;1.17;0.53;;;16.90;60.00;;;;;;5015358;28;20416;-91
2023/02/28 13:09:55;;;;;;;1.63;0.50;;;;;;;;;;5014613;28;20471;-92
2023/02/28 13:12:22;;;;;;;1.27;0.43;;;15.20;36.90;;;;;;5014857;28;20417;-92
2023/02/28 13:14:49;;;;;;;1.30;0.67;;;;;;;;;;5014740;28;20408;-85
2023/02/28 13:17:21;;;;;;;1.57;0.50;;;12.30;12.30;;;;;;5014482;28;20468;-94
2023/02/28 13:19:53;;;;;;;1.90;0.73;;;12.50;19.30;;;;;;5013939;28;20409;-91
2023/02/28 13:22:20;;;;;;;1.53;0.43;;;13.10;24.50;;;;;;5014915;28;20426;-92
2023/02/28 13:24:45;;;;;;;1.77;0.40;;;12.30;20.60;;;;;;5014526;28;20555;-93
2023/02/28 13:27:24;;;;;;;1.83;0.50;;;12.80;23.30;;;;;;5015143;28;20812;-94
2023/02/28 13:29:53;;;;;;;1.90;0.70;;;12.50;21.20;;;;;;5014884;28;20217;-92
2023/02/28 13:32:24;;;;;;;1.60;0.77;;;12.30;19.80;;;;;;5014598;28;20461;-91
2023/02/28 13:34:50;;;;;;;1.43;0.40;;;12.00;57.90;;;;;;5014913;28;20508;-94
2023/02/28 13:37:21;;;;;;;1.23;0.47;;;12.40;99.90;;;;;;5014842;28;20916;-89
2023/02/28 13:39:55;;;;;;;1.30;0.80;;;12.50;99.90;;;;;;5014283;28;20524;-92
2023/02/28 13:42:44;;;;;;;1.00;0.33;;;12.50;99.90;;;;;;5014796;28;20535;-90
2023/02/28 13:45:10;;;;;;;1.00;0.30;;;11.80;99.90;;;;;;5014595;28;20460;-92